Time;durP1;ratioP1;P1;durP2;ratioP2;P2;SDS_P1;SDS_P2;PMS_P1;PMS_P2;Temp;Humidity;BMP_temperature;BMP_pressure;BME280_temperature;BME280_humidity;BME280_pressure;Samples;Min_cycle;Max_cycle;Signal;HPM_P1;HPM_P2
2023/03/23 00:00:36;;;;;;;1.00;0.50;;;15.60;72.50;;;;;;10446706;28;20116;-56
2023/03/23 00:05:41;;;;;;;2.88;0.80;;;15.50;72.50;;;;;;10447022;28;20484;-56
2023/03/23 00:10:41;;;;;;;1.58;1.05;;;15.50;72.40;;;;;;10447605;28;20047;-56
2023/03/23 00:15:42;;;;;;;1.55;0.60;;;15.50;72.40;;;;;;10447575;28;20036;-57
2023/03/23 00:20:44;;;;;;;1.20;0.70;;;15.50;72.40;;;;;;10447171;28;20031;-56
2023/03/23 00:25:56;;;;;;;1.40;0.80;;;15.50;72.40;;;;;;10445895;28;20546;-57
2023/03/23 00:30:58;;;;;;;2.72;1.05;;;15.50;72.40;;;;;;10445894;28;20029;-56
2023/03/23 00:35:59;;;;;;;1.13;0.80;;;15.50;72.40;;;;;;10435479;28;20029;-56
2023/03/23 00:41:02;;;;;;;1.30;0.80;;;15.50;72.30;;;;;;10445389;28;20032;-56
2023/03/23 00:46:08;;;;;;;1.90;0.90;;;15.50;72.30;;;;;;10428628;28;20017;-57
2023/03/23 00:51:11;;;;;;;1.00;0.68;;;15.50;72.30;;;;;;10445481;28;20483;-57
2023/03/23 00:56:13;;;;;;;1.40;0.95;;;15.40;72.30;;;;;;10445900;28;20508;-56
2023/03/23 01:01:13;;;;;;;1.48;0.75;;;15.40;72.30;;;;;;10444968;28;20074;-56
2023/03/23 01:06:14;;;;;;;2.35;1.10;;;15.40;72.30;;;;;;10461351;28;20098;-57
2023/03/23 01:11:16;;;;;;;1.38;0.50;;;15.40;72.50;;;;;;10446028;28;20136;-56
2023/03/23 01:16:17;;;;;;;1.65;0.90;;;15.40;72.50;;;;;;10444864;28;20064;-56
2023/03/23 01:21:20;;;;;;;1.38;0.80;;;15.40;72.40;;;;;;10445996;28;20033;-57
2023/03/23 01:26:24;;;;;;;0.98;0.70;;;15.40;72.30;;;;;;10444758;28;20071;-55
2023/03/23 01:31:26;;;;;;;0.93;0.47;;;15.40;72.30;;;;;;10428007;28;20017;-56
2023/03/23 01:36:32;;;;;;;1.48;0.52;;;15.40;72.40;;;;;;10418716;28;20032;-56
2023/03/23 01:41:34;;;;;;;1.63;0.63;;;15.40;72.30;;;;;;10445565;28;20024;-57
2023/03/23 01:46:36;;;;;;;1.60;0.90;;;15.40;72.20;;;;;;10445620;28;20401;-57
2023/03/23 01:51:51;;;;;;;1.02;0.50;;;15.40;72.30;;;;;;10445523;28;20017;-56
2023/03/23 01:57:19;;;;;;;0.73;0.50;;;15.40;73.00;;;;;;10446223;28;20028;-57
2023/03/23 02:02:22;;;;;;;1.77;0.57;;;15.30;72.30;;;;;;10446073;28;20086;-57
2023/03/23 02:07:24;;;;;;;1.10;0.68;;;15.40;72.20;;;;;;10467371;28;20169;-57
2023/03/23 02:12:25;;;;;;;1.83;0.82;;;15.40;72.30;;;;;;10450873;28;20163;-56
2023/03/23 02:17:45;;;;;;;1.65;0.70;;;15.40;72.30;;;;;;10452371;28;20834;-56
2023/03/23 02:23:16;;;;;;;1.73;0.68;;;15.30;72.20;;;;;;10450721;28;20051;-56
2023/03/23 02:28:46;;;;;;;1.05;0.63;;;15.30;72.30;;;;;;10450946;28;20061;-56
2023/03/23 02:33:55;;;;;;;0.50;0.40;;;15.30;72.30;;;;;;10450231;28;20033;-56
2023/03/23 02:39:23;;;;;;;0.93;0.47;;;15.30;72.20;;;;;;10466551;28;20021;-57
2023/03/23 02:44:29;;;;;;;0.77;0.50;;;15.30;72.20;;;;;;10433302;28;20025;-57
2023/03/23 02:49:35;;;;;;;0.98;0.60;;;15.30;72.20;;;;;;10449682;28;20373;-56
2023/03/23 02:54:36;;;;;;;0.93;0.80;;;15.30;72.20;;;;;;10423631;28;20036;-57
2023/03/23 02:59:39;;;;;;;1.08;0.75;;;15.30;72.20;;;;;;10449402;28;20426;-57
2023/03/23 03:04:42;;;;;;;1.25;0.70;;;15.30;72.20;;;;;;10450444;28;20097;-57
2023/03/23 03:10:11;;;;;;;1.15;0.68;;;15.30;72.10;;;;;;10448753;28;20021;-56
2023/03/23 03:15:39;;;;;;;0.70;0.50;;;15.30;72.20;;;;;;10449081;28;20047;-56
2023/03/23 03:20:53;;;;;;;0.65;0.45;;;15.30;72.20;;;;;;10453153;28;20025;-61
2023/03/23 03:25:57;;;;;;;1.33;0.40;;;15.30;72.30;;;;;;10448507;28;20656;-56
2023/03/23 03:31:02;;;;;;;1.25;0.80;;;15.30;72.30;;;;;;10449146;28;20492;-56
2023/03/23 03:36:08;;;;;;;2.42;0.82;;;15.30;72.20;;;;;;10447592;28;20036;-55
2023/03/23 03:41:09;;;;;;;1.08;0.63;;;15.20;72.20;;;;;;10448154;28;20460;-55
2023/03/23 03:46:10;;;;;;;0.80;0.50;;;15.30;72.20;;;;;;10448731;28;20017;-57
2023/03/23 03:51:11;;;;;;;0.98;0.50;;;15.20;72.10;;;;;;10431413;28;20108;-57
2023/03/23 03:56:13;;;;;;;1.40;0.60;;;15.20;72.20;;;;;;10448254;28;20040;-57
2023/03/23 04:01:15;;;;;;;1.40;0.63;;;15.20;72.20;;;;;;10446716;28;20021;-56
2023/03/23 04:06:17;;;;;;;1.15;0.70;;;15.20;72.10;;;;;;10446569;28;20017;-56
2023/03/23 04:11:18;;;;;;;1.55;0.50;;;15.20;72.20;;;;;;10446530;28;20037;-57
2023/03/23 04:16:19;;;;;;;1.40;0.73;;;15.20;72.10;;;;;;10446232;28;20108;-56
2023/03/23 04:21:19;;;;;;;1.08;0.68;;;15.20;72.20;;;;;;10447304;28;20070;-56
2023/03/23 04:26:20;;;;;;;1.88;0.60;;;15.20;72.20;;;;;;10445440;28;20014;-57
2023/03/23 04:31:25;;;;;;;1.55;0.80;;;15.20;72.20;;;;;;10445952;28;20077;-57
2023/03/23 04:36:25;;;;;;;1.08;0.93;;;15.20;72.10;;;;;;10445797;28;20043;-56
2023/03/23 04:41:26;;;;;;;1.40;0.88;;;15.20;72.10;;;;;;10445109;28;20074;-56
2023/03/23 04:46:28;;;;;;;2.75;0.70;;;15.30;71.60;;;;;;10445205;28;20025;-56
2023/03/23 04:51:31;;;;;;;0.80;0.50;;;15.60;70.90;;;;;;10445412;28;20017;-56
2023/03/23 04:56:31;;;;;;;1.00;0.60;;;15.80;70.20;;;;;;10444783;28;20025;-56
2023/03/23 05:01:33;;;;;;;2.75;0.60;;;16.00;69.40;;;;;;10442350;28;20048;-56
2023/03/23 05:06:34;;;;;;;1.83;0.60;;;16.20;69.00;;;;;;10444845;28;20064;-56
2023/03/23 05:11:35;;;;;;;1.50;0.65;;;16.30;68.70;;;;;;10444877;28;20120;-56
2023/03/23 05:16:37;;;;;;;7.60;1.48;;;16.30;68.60;;;;;;10443272;28;20475;-56
2023/03/23 05:21:38;;;;;;;0.57;0.52;;;16.30;68.70;;;;;;10451559;28;20948;-56
2023/03/23 05:26:38;;;;;;;1.30;0.80;;;16.30;68.70;;;;;;10436163;28;20116;-56
2023/03/23 05:31:39;;;;;;;1.40;0.60;;;16.30;68.70;;;;;;10445400;28;20107;-57
2023/03/23 05:36:40;;;;;;;4.03;0.68;;;16.30;69.00;;;;;;10434722;28;20420;-54
2023/03/23 05:41:41;;;;;;;3.90;1.15;;;16.30;69.40;;;;;;10410044;28;20074;-55
2023/03/23 05:46:41;;;;;;;1.33;0.70;;;16.40;68.90;;;;;;10415000;28;20718;-55
2023/03/23 05:51:45;;;;;;;5.63;2.05;;;16.50;69.00;;;;;;10427528;28;20112;-54
2023/03/23 05:56:46;;;;;;;5.45;1.52;;;16.50;69.90;;;;;;10414014;28;20017;-57
2023/03/23 06:01:47;;;;;;;5.60;1.95;;;16.60;70.60;;;;;;10450854;28;20602;-55
2023/03/23 06:06:48;;;;;;;6.03;1.80;;;16.50;70.90;;;;;;10450601;28;20607;-58
2023/03/23 06:11:49;;;;;;;9.50;2.15;;;16.50;71.60;;;;;;10450327;28;20515;-55
2023/03/23 06:16:50;;;;;;;6.50;1.83;;;16.50;71.80;;;;;;10450378;28;20025;-55
2023/03/23 06:21:51;;;;;;;9.60;2.03;;;16.50;71.60;;;;;;10451714;28;20044;-55
2023/03/23 06:26:51;;;;;;;9.30;2.55;;;16.50;72.40;;;;;;10448668;28;20029;-55
2023/03/23 06:31:57;;;;;;;10.80;3.13;;;16.40;72.50;;;;;;10450456;28;20052;-54
2023/03/23 06:36:58;;;;;;;7.15;1.55;;;16.40;72.80;;;;;;10448750;28;20021;-53
2023/03/23 06:41:59;;;;;;;6.35;2.85;;;16.40;72.60;;;;;;10448423;28;20029;-53
2023/03/23 06:47:00;;;;;;;8.98;2.55;;;16.30;72.80;;;;;;10449139;28;20607;-56
2023/03/23 06:52:03;;;;;;;8.55;1.83;;;16.30;72.60;;;;;;10430102;28;20720;-55
2023/03/23 06:57:03;;;;;;;9.23;2.20;;;16.30;72.70;;;;;;10447121;28;20029;-55
2023/03/23 07:02:04;;;;;;;6.45;2.20;;;16.20;72.70;;;;;;10446598;28;20052;-54
2023/03/23 07:07:10;;;;;;;8.48;2.40;;;16.10;72.90;;;;;;10445468;28;20391;-55
2023/03/23 07:12:11;;;;;;;11.65;2.33;;;16.10;72.90;;;;;;10443888;28;20044;-55
2023/03/23 07:17:11;;;;;;;6.78;1.60;;;16.00;72.90;;;;;;10444549;28;20029;-56
2023/03/23 07:22:12;;;;;;;6.32;2.10;;;16.00;72.90;;;;;;10446169;28;20112;-55
2023/03/23 07:27:13;;;;;;;9.20;2.47;;;15.90;72.80;;;;;;10426096;28;20033;-56
2023/03/23 07:32:14;;;;;;;8.80;1.90;;;15.90;72.80;;;;;;10442661;28;20099;-56
2023/03/23 07:37:15;;;;;;;8.23;2.05;;;15.90;73.00;;;;;;10432907;28;20024;-54
2023/03/23 07:42:16;;;;;;;6.05;2.15;;;15.80;72.80;;;;;;10434413;28;20032;-56
2023/03/23 07:47:17;;;;;;;6.07;1.75;;;15.80;72.90;;;;;;10435117;28;20703;-56
2023/03/23 07:52:19;;;;;;;5.60;1.52;;;15.70;72.80;;;;;;10440773;28;20028;-55
2023/03/23 07:57:20;;;;;;;5.65;2.85;;;15.70;72.70;;;;;;10444296;28;20021;-55
2023/03/23 08:02:20;;;;;;;4.32;1.48;;;15.70;72.60;;;;;;10455002;28;20063;-56
2023/03/23 08:07:21;;;;;;;3.47;1.20;;;15.70;72.60;;;;;;10423472;28;20435;-56
2023/03/23 08:12:22;;;;;;;4.20;1.10;;;15.70;72.60;;;;;;10428655;28;20124;-55
2023/03/23 08:17:22;;;;;;;3.85;1.20;;;15.70;72.60;;;;;;10435673;28;20108;-55
2023/03/23 08:22:24;;;;;;;5.35;1.38;;;15.60;72.50;;;;;;10433920;28;20025;-55
2023/03/23 08:27:25;;;;;;;5.55;1.52;;;15.60;72.30;;;;;;10446375;28;20094;-55
2023/03/23 08:32:26;;;;;;;2.53;1.00;;;15.70;72.20;;;;;;10447053;28;20048;-55
2023/03/23 08:37:26;;;;;;;9.05;1.50;;;15.70;72.00;;;;;;10436184;28;20053;-56
2023/03/23 08:42:27;;;;;;;3.63;1.38;;;15.70;72.00;;;;;;10437647;28;20025;-55
2023/03/23 08:47:28;;;;;;;2.63;1.23;;;15.70;71.90;;;;;;10444295;28;20056;-56
2023/03/23 08:52:29;;;;;;;5.78;1.05;;;15.70;72.00;;;;;;10414314;28;20017;-55
2023/03/23 08:57:30;;;;;;;5.78;1.20;;;15.80;71.80;;;;;;10428829;28;20041;-55
2023/03/23 09:02:33;;;;;;;6.03;1.30;;;15.80;71.60;;;;;;10432352;28;20116;-56
2023/03/23 09:07:35;;;;;;;8.18;1.23;;;15.80;71.50;;;;;;10426992;28;20036;-55
2023/03/23 09:12:35;;;;;;;3.22;0.93;;;15.90;71.40;;;;;;10458503;28;20563;-56
2023/03/23 09:17:44;;;;;;;2.00;0.75;;;15.90;71.30;;;;;;10440194;28;20029;-55
2023/03/23 09:22:47;;;;;;;10.52;1.23;;;15.90;71.30;;;;;;10439696;28;20487;-55
2023/03/23 09:27:53;;;;;;;3.42;1.27;;;15.90;71.40;;;;;;10438437;28;20043;-56
2023/03/23 09:32:55;;;;;;;4.82;0.93;;;15.90;71.40;;;;;;10434752;28;20020;-56
2023/03/23 09:37:56;;;;;;;3.55;1.30;;;15.90;71.40;;;;;;10434297;28;20126;-56
2023/03/23 09:43:28;;;;;;;3.05;1.48;;;15.80;71.80;;;;;;10435318;28;20036;-56
2023/03/23 09:48:38;;;;;;;3.88;1.63;;;15.80;71.80;;;;;;10444485;28;20037;-56
2023/03/23 09:53:47;;;;;;;2.83;1.08;;;15.80;71.90;;;;;;10442389;28;20021;-56
2023/03/23 09:59:31;;;;;;;4.90;1.35;;;15.80;72.10;;;;;;10430888;28;20040;-56
2023/03/23 10:04:43;;;;;;;2.05;0.88;;;15.80;72.10;;;;;;10428871;28;20043;-54
2023/03/23 10:09:52;;;;;;;3.60;1.05;;;15.80;71.90;;;;;;10436524;28;20112;-55
2023/03/23 10:15:25;;;;;;;2.93;1.00;;;15.80;72.00;;;;;;10431700;28;20041;-55
2023/03/23 10:20:40;;;;;;;1.60;0.75;;;15.80;72.10;;;;;;10453273;28;20025;-56
2023/03/23 10:26:15;;;;;;;2.42;1.17;;;15.90;72.00;;;;;;10450832;28;20021;-55
2023/03/23 10:31:29;;;;;;;2.42;0.88;;;15.90;72.60;;;;;;10449769;28;20137;-56
2023/03/23 10:36:43;;;;;;;2.92;1.20;;;15.90;71.70;;;;;;10441470;28;20029;-56
2023/03/23 10:41:44;;;;;;;2.92;1.13;;;15.90;71.70;;;;;;10445566;28;20071;-56
2023/03/23 10:47:02;;;;;;;6.00;1.23;;;15.90;71.90;;;;;;10448116;28;20572;-56
2023/03/23 10:52:13;;;;;;;1.70;0.90;;;15.90;71.70;;;;;;10427213;28;20079;-56
2023/03/23 10:57:26;;;;;;;3.58;1.33;;;15.90;71.60;;;;;;10449116;28;20106;-55
2023/03/23 11:02:28;;;;;;;2.28;0.60;;;15.90;71.80;;;;;;10463529;28;20020;-55
2023/03/23 11:07:32;;;;;;;3.20;0.98;;;15.90;71.50;;;;;;10422835;28;20033;-54
2023/03/23 11:12:34;;;;;;;2.42;0.82;;;15.90;71.60;;;;;;10443857;28;20076;-56
2023/03/23 11:17:34;;;;;;;1.65;0.70;;;16.00;71.70;;;;;;10446133;28;20059;-55
2023/03/23 11:22:36;;;;;;;2.78;1.25;;;16.00;71.60;;;;;;10429973;28;20024;-55
2023/03/23 11:27:40;;;;;;;1.77;0.90;;;16.10;71.50;;;;;;10439842;28;20031;-56
2023/03/23 11:32:44;;;;;;;3.00;1.08;;;16.10;71.40;;;;;;10424872;28;20017;-55
2023/03/23 11:37:59;;;;;;;3.00;1.35;;;16.00;71.30;;;;;;10428584;28;20032;-55
2023/03/23 11:43:22;;;;;;;2.63;0.82;;;16.00;71.40;;;;;;10439309;28;20017;-56
2023/03/23 11:48:48;;;;;;;2.53;0.68;;;16.00;72.00;;;;;;10436639;28;20124;-55
2023/03/23 11:54:29;;;;;;;2.60;1.02;;;16.00;71.40;;;;;;10434289;28;20454;-55
2023/03/23 11:59:35;;;;;;;1.25;0.60;;;16.00;71.40;;;;;;10440340;28;20071;-56
2023/03/23 12:04:54;;;;;;;3.20;1.00;;;16.00;71.30;;;;;;10441589;28;20444;-55
2023/03/23 12:10:11;;;;;;;2.58;1.17;;;16.10;71.40;;;;;;10443347;28;20051;-55
2023/03/23 12:15:26;;;;;;;2.30;0.98;;;16.20;71.30;;;;;;10445936;28;20036;-55
2023/03/23 12:21:13;;;;;;;2.85;0.70;;;16.20;71.30;;;;;;10410573;28;20116;-56
2023/03/23 12:26:21;;;;;;;3.85;0.85;;;16.10;71.20;;;;;;10435139;28;20063;-55
2023/03/23 12:31:53;;;;;;;2.60;0.90;;;16.00;71.50;;;;;;10442909;28;20020;-55
2023/03/23 12:37:35;;;;;;;3.05;0.65;;;16.00;71.60;;;;;;10440927;28;20114;-55
2023/03/23 12:43:12;;;;;;;2.17;0.90;;;16.00;71.60;;;;;;10441497;28;20024;-56
2023/03/23 12:48:26;;;;;;;2.38;0.82;;;15.90;71.70;;;;;;10433194;28;20040;-56
2023/03/23 12:53:35;;;;;;;1.70;0.85;;;15.90;71.70;;;;;;10444542;28;20025;-55
2023/03/23 12:58:49;;;;;;;2.65;0.90;;;15.90;71.80;;;;;;10440304;28;20096;-55
2023/03/23 13:04:18;;;;;;;2.13;0.98;;;15.80;71.70;;;;;;10459656;28;20049;-56
2023/03/23 13:09:48;;;;;;;4.78;1.00;;;15.80;71.70;;;;;;10445780;28;20048;-57
2023/03/23 13:15:33;;;;;;;5.28;1.20;;;15.80;71.80;;;;;;10430660;28;20077;-56
2023/03/23 13:20:51;;;;;;;2.05;0.88;;;15.90;71.70;;;;;;10421801;28;20048;-56
2023/03/23 13:26:21;;;;;;;4.60;1.17;;;15.80;71.70;;;;;;10438754;28;20029;-56
2023/03/23 13:31:33;;;;;;;4.03;1.17;;;15.90;71.90;;;;;;10439268;28;20396;-55
2023/03/23 13:36:41;;;;;;;8.20;1.65;;;16.00;71.80;;;;;;10431125;28;20115;-56
2023/03/23 13:42:23;;;;;;;8.47;1.10;;;16.10;71.70;;;;;;10443456;28;20033;-56
2023/03/23 13:47:23;;;;;;;6.13;1.15;;;16.10;71.70;;;;;;10425772;28;20167;-61
2023/03/23 13:52:45;;;;;;;4.28;1.00;;;16.10;71.90;;;;;;10434512;28;20027;-57
2023/03/23 13:58:13;;;;;;;4.13;1.23;;;16.00;71.80;;;;;;10439254;28;20358;-56
2023/03/23 14:03:25;;;;;;;3.08;0.73;;;16.00;71.80;;;;;;10447543;28;20057;-57
2023/03/23 14:08:29;;;;;;;4.20;0.80;;;16.00;71.90;;;;;;10438748;28;20491;-55
2023/03/23 14:13:51;;;;;;;2.78;0.95;;;15.90;71.80;;;;;;10448648;28;20626;-56
2023/03/23 14:19:01;;;;;;;3.97;1.25;;;15.90;71.80;;;;;;10452917;28;20086;-56
2023/03/23 14:24:24;;;;;;;5.35;1.00;;;15.90;71.80;;;;;;10450808;28;20036;-56
2023/03/23 14:29:25;;;;;;;2.50;0.70;;;15.90;71.80;;;;;;10450861;28;20041;-57
2023/03/23 14:34:30;;;;;;;1.80;0.50;;;15.90;71.80;;;;;;10440946;28;20408;-56
2023/03/23 14:39:33;;;;;;;4.57;1.08;;;15.90;71.80;;;;;;10463661;28;20060;-56
2023/03/23 14:44:39;;;;;;;4.18;0.77;;;16.00;71.80;;;;;;10451277;28;20319;-56
2023/03/23 14:49:43;;;;;;;1.42;0.80;;;16.00;71.70;;;;;;10448716;28;20504;-56
2023/03/23 14:54:45;;;;;;;2.40;0.73;;;16.10;71.60;;;;;;10448634;28;20091;-56
2023/03/23 14:59:48;;;;;;;3.78;0.93;;;16.10;71.50;;;;;;10465106;28;20021;-56
2023/03/23 15:04:55;;;;;;;4.85;0.88;;;16.20;71.40;;;;;;10447953;28;20385;-57
2023/03/23 15:09:56;;;;;;;3.50;1.10;;;16.20;71.20;;;;;;10442011;28;20523;-56
2023/03/23 15:15:02;;;;;;;2.03;0.80;;;16.20;71.10;;;;;;10448826;28;20040;-56
2023/03/23 15:20:21;;;;;;;3.55;1.38;;;16.30;71.00;;;;;;10447465;28;20058;-57
2023/03/23 15:25:29;;;;;;;1.53;0.60;;;16.30;71.00;;;;;;10435286;28;20381;-56
2023/03/23 15:30:35;;;;;;;2.43;0.60;;;16.30;71.10;;;;;;10432260;28;20025;-56
2023/03/23 15:35:45;;;;;;;5.38;0.80;;;16.30;71.10;;;;;;10448725;28;20104;-57
2023/03/23 15:40:52;;;;;;;1.30;0.55;;;16.30;71.00;;;;;;10446528;28;20375;-55
2023/03/23 15:46:11;;;;;;;1.35;0.68;;;16.30;71.10;;;;;;10447908;28;20024;-55
2023/03/23 15:51:12;;;;;;;1.40;0.68;;;16.20;71.00;;;;;;10444786;28;20120;-56
2023/03/23 15:56:14;;;;;;;3.05;0.95;;;16.20;71.30;;;;;;10437221;28;20045;-55
2023/03/23 16:01:24;;;;;;;3.55;1.00;;;16.20;71.30;;;;;;10443461;28;20021;-56
2023/03/23 16:06:28;;;;;;;5.53;0.82;;;16.10;71.70;;;;;;10444842;28;20056;-55
2023/03/23 16:11:30;;;;;;;2.67;1.20;;;16.10;71.70;;;;;;10444597;28;20044;-56
2023/03/23 16:16:48;;;;;;;4.07;0.95;;;16.10;71.90;;;;;;10428648;28;20071;-56
2023/03/23 16:21:49;;;;;;;4.88;0.70;;;16.10;71.80;;;;;;10444041;28;20456;-57
2023/03/23 16:26:49;;;;;;;6.00;1.80;;;16.10;71.60;;;;;;10443383;28;20115;-55
2023/03/23 16:31:50;;;;;;;5.85;1.00;;;16.10;71.60;;;;;;10445016;28;20023;-57
2023/03/23 16:36:51;;;;;;;3.53;1.00;;;16.10;71.50;;;;;;10444830;28;20028;-54
2023/03/23 16:41:51;;;;;;;6.25;1.02;;;16.10;71.60;;;;;;10445037;28;20630;-56
2023/03/23 16:46:52;;;;;;;12.38;1.40;;;16.10;71.60;;;;;;10424272;28;20545;-56
2023/03/23 16:51:54;;;;;;;19.73;3.95;;;16.10;71.90;;;;;;10443689;28;20043;-56
2023/03/23 16:56:55;;;;;;;32.15;5.32;;;16.00;72.10;;;;;;10439484;28;20024;-56
2023/03/23 17:01:59;;;;;;;20.73;4.85;;;16.10;72.10;;;;;;10441836;28;20117;-56
2023/03/23 17:07:00;;;;;;;22.13;7.85;;;16.10;72.40;;;;;;10437551;28;20024;-56
2023/03/23 17:12:00;;;;;;;29.10;4.13;;;16.20;75.30;;;;;;10445498;28;20052;-56
2023/03/23 17:17:01;;;;;;;17.63;3.35;;;16.40;74.20;;;;;;10444183;28;20052;-55
2023/03/23 17:22:02;;;;;;;16.77;4.15;;;16.60;73.50;;;;;;10446634;28;20028;-55
2023/03/23 17:27:03;;;;;;;20.15;4.05;;;16.50;73.30;;;;;;10446735;28;20021;-55
2023/03/23 17:32:04;;;;;;;18.83;4.10;;;16.60;72.90;;;;;;10453092;28;20093;-56
2023/03/23 17:37:05;;;;;;;21.08;4.05;;;16.60;73.10;;;;;;10443324;28;20432;-56
2023/03/23 17:42:06;;;;;;;19.63;3.42;;;16.60;73.20;;;;;;10426051;28;20424;-57
2023/03/23 17:47:07;;;;;;;26.92;4.60;;;16.60;73.10;;;;;;10426239;28;20028;-56
2023/03/23 17:52:07;;;;;;;17.67;3.85;;;16.50;73.20;;;;;;10448644;28;20021;-56
2023/03/23 17:57:09;;;;;;;15.18;3.63;;;16.50;73.40;;;;;;10442252;28;20037;-56
2023/03/23 18:02:12;;;;;;;23.48;3.90;;;16.50;73.70;;;;;;10448784;28;20052;-55
2023/03/23 18:07:13;;;;;;;19.90;4.15;;;16.30;73.90;;;;;;10443146;28;20444;-55
2023/03/23 18:12:14;;;;;;;15.40;3.80;;;16.20;74.00;;;;;;10439123;28;20075;-56
2023/03/23 18:17:15;;;;;;;17.17;4.47;;;16.20;74.00;;;;;;10450520;28;20112;-56
2023/03/23 18:22:15;;;;;;;14.07;4.88;;;16.10;74.00;;;;;;10448749;28;20047;-56
2023/03/23 18:27:16;;;;;;;12.98;3.40;;;16.10;74.20;;;;;;10446428;28;20121;-56
2023/03/23 18:32:18;;;;;;;14.52;2.83;;;16.10;74.00;;;;;;10451987;28;20024;-56
2023/03/23 18:37:19;;;;;;;10.43;3.08;;;16.10;73.90;;;;;;10449839;28;20025;-56
2023/03/23 18:42:20;;;;;;;12.98;3.08;;;16.10;73.80;;;;;;10449793;28;20039;-57
2023/03/23 18:47:21;;;;;;;11.43;3.30;;;16.10;73.70;;;;;;10440887;28;20029;-57
2023/03/23 18:52:24;;;;;;;11.82;2.95;;;16.00;73.60;;;;;;10441980;28;20035;-56
2023/03/23 18:57:26;;;;;;;12.98;2.53;;;16.00;73.60;;;;;;10438252;28;20032;-56
2023/03/23 19:02:27;;;;;;;18.05;3.03;;;16.00;73.60;;;;;;10446646;28;20021;-56
2023/03/23 19:07:28;;;;;;;11.95;2.65;;;16.00;73.60;;;;;;10439639;28;20615;-56
2023/03/23 19:12:28;;;;;;;13.85;2.78;;;16.00;73.60;;;;;;10463120;28;20435;-55
2023/03/23 19:17:29;;;;;;;13.75;2.70;;;16.00;73.60;;;;;;10448567;28;20108;-56
2023/03/23 19:22:30;;;;;;;14.52;2.83;;;16.00;73.50;;;;;;10446626;28;20057;-56
2023/03/23 19:27:31;;;;;;;14.45;2.92;;;16.00;73.50;;;;;;10452863;28;20120;-56
2023/03/23 19:32:32;;;;;;;13.38;2.70;;;16.00;73.60;;;;;;10447772;28;20100;-56
2023/03/23 19:37:33;;;;;;;7.60;1.70;;;16.00;73.30;;;;;;10414346;28;20529;-56
2023/03/23 19:42:34;;;;;;;11.07;2.30;;;16.00;73.40;;;;;;10446745;28;20025;-56
2023/03/23 19:47:35;;;;;;;13.45;4.10;;;16.00;73.40;;;;;;10446770;28;20459;-56
2023/03/23 19:52:35;;;;;;;9.82;2.60;;;16.00;73.40;;;;;;10434772;28;20009;-56
2023/03/23 19:57:36;;;;;;;11.55;3.03;;;16.00;73.60;;;;;;10444672;28;20750;-55
2023/03/23 20:02:37;;;;;;;8.38;2.80;;;16.00;73.70;;;;;;10448108;28;20092;-55
2023/03/23 20:07:38;;;;;;;7.43;2.40;;;16.00;73.50;;;;;;10445486;28;20432;-54
2023/03/23 20:12:38;;;;;;;7.88;2.22;;;16.00;73.20;;;;;;10420029;28;20037;-57
2023/03/23 20:17:39;;;;;;;6.55;1.75;;;16.00;73.30;;;;;;10443511;28;20033;-56
2023/03/23 20:22:40;;;;;;;7.90;2.60;;;16.00;73.30;;;;;;10441958;28;20086;-56
2023/03/23 20:27:42;;;;;;;5.93;1.50;;;15.90;73.30;;;;;;10452975;28;20036;-56
2023/03/23 20:32:45;;;;;;;8.35;1.83;;;15.90;73.20;;;;;;10445047;28;20070;-56
2023/03/23 20:37:49;;;;;;;3.13;1.20;;;15.90;73.30;;;;;;10461789;28;20037;-56
2023/03/23 20:42:53;;;;;;;2.72;0.88;;;15.90;73.10;;;;;;10435994;28;20111;-55
2023/03/23 20:47:53;;;;;;;1.77;0.85;;;15.90;73.10;;;;;;10445276;28;20539;-56
2023/03/23 20:52:55;;;;;;;3.50;1.13;;;15.90;73.10;;;;;;10433526;28;20021;-56
2023/03/23 20:57:56;;;;;;;5.22;1.55;;;15.90;73.10;;;;;;10444629;28;20082;-56
2023/03/23 21:02:57;;;;;;;7.28;1.85;;;15.80;73.00;;;;;;10446060;28;20457;-56
2023/03/23 21:07:58;;;;;;;4.15;1.20;;;15.90;73.00;;;;;;10446377;28;20447;-55
2023/03/23 21:12:58;;;;;;;3.35;1.20;;;15.80;73.00;;;;;;10428277;28;20230;-56
2023/03/23 21:17:59;;;;;;;4.72;1.42;;;15.80;72.90;;;;;;10426315;28;20415;-56
2023/03/23 21:23:00;;;;;;;4.63;1.20;;;15.80;73.00;;;;;;10445997;28;20033;-56
2023/03/23 21:28:03;;;;;;;2.95;1.20;;;15.80;73.00;;;;;;10444350;28;20787;-56
2023/03/23 21:33:04;;;;;;;4.10;1.30;;;15.80;73.00;;;;;;10445769;28;20371;-56
2023/03/23 21:38:04;;;;;;;5.63;1.70;;;15.80;72.90;;;;;;10445450;28;20108;-56
2023/03/23 21:43:11;;;;;;;3.40;1.15;;;15.80;72.90;;;;;;10446275;28;20428;-55
2023/03/23 21:48:14;;;;;;;3.60;1.35;;;15.80;72.90;;;;;;10443797;28;20032;-56
2023/03/23 21:53:17;;;;;;;3.55;0.90;;;15.70;72.80;;;;;;10433381;28;20013;-56
2023/03/23 21:58:26;;;;;;;6.63;1.35;;;15.80;72.80;;;;;;10445433;28;20015;-56
2023/03/23 22:03:31;;;;;;;5.95;1.85;;;15.70;72.80;;;;;;10443660;28;20053;-55
2023/03/23 22:08:32;;;;;;;2.30;1.10;;;15.70;72.80;;;;;;10443775;28;20099;-55
2023/03/23 22:13:36;;;;;;;1.73;1.27;;;15.70;72.70;;;;;;10444952;28;20608;-56
2023/03/23 22:18:38;;;;;;;7.75;1.30;;;15.80;72.70;;;;;;10452632;28;20098;-55
2023/03/23 22:23:40;;;;;;;3.70;1.35;;;15.70;72.70;;;;;;10450830;28;20021;-55
2023/03/23 22:28:41;;;;;;;3.53;1.40;;;15.70;72.70;;;;;;10436006;28;20036;-54
2023/03/23 22:33:42;;;;;;;2.47;1.10;;;15.70;72.60;;;;;;10451866;28;20021;-56
2023/03/23 22:38:46;;;;;;;2.38;1.10;;;15.70;72.60;;;;;;10450157;28;20025;-56
2023/03/23 22:43:47;;;;;;;5.55;1.70;;;15.70;72.60;;;;;;10449951;28;20092;-54
2023/03/23 22:48:48;;;;;;;3.63;1.27;;;15.70;72.60;;;;;;10451408;28;20174;-56
2023/03/23 22:53:49;;;;;;;3.67;1.23;;;15.70;72.60;;;;;;10449746;28;20024;-56
2023/03/23 22:58:50;;;;;;;4.70;1.48;;;15.70;73.10;;;;;;10450551;28;20100;-55
2023/03/23 23:03:51;;;;;;;2.45;0.85;;;15.70;72.50;;;;;;10449366;28;20060;-56
2023/03/23 23:08:51;;;;;;;4.13;1.15;;;15.70;72.50;;;;;;10449130;28;20036;-56
2023/03/23 23:13:52;;;;;;;2.38;1.02;;;15.70;72.50;;;;;;10450084;28;20041;-56
2023/03/23 23:18:53;;;;;;;2.72;1.10;;;15.70;72.50;;;;;;10450465;28;20021;-56
2023/03/23 23:23:54;;;;;;;3.10;1.33;;;15.70;72.50;;;;;;10448200;28;20048;-56
2023/03/23 23:28:55;;;;;;;2.58;1.15;;;15.70;72.50;;;;;;10448296;28;20037;-56
2023/03/23 23:33:58;;;;;;;3.45;1.20;;;15.70;72.40;;;;;;10449764;28;20020;-56
2023/03/23 23:39:01;;;;;;;3.50;1.35;;;15.70;72.40;;;;;;10449534;28;20055;-56
2023/03/23 23:44:02;;;;;;;4.22;0.82;;;15.70;72.40;;;;;;10431654;28;20557;-56
2023/03/23 23:49:03;;;;;;;3.10;1.08;;;15.70;72.30;;;;;;10447423;28;20044;-56
2023/03/23 23:54:04;;;;;;;2.75;1.02;;;15.70;72.40;;;;;;10449887;28;20062;-55
2023/03/23 23:59:05;;;;;;;4.35;0.98;;;15.70;72.30;;;;;;10448083;28;20033;-56
